G979RC EGEO-EGQG

Flight info

Callsign G979RC
Flight time N/A
Altitude 13000
Route LOCAL VFR
Aircraft C25C/L-VGD/C

Departure

Time 2026-05-05 00:22
Airport Oban Airport (EGEO)

Arrival

Time N/A
Airport EGQG
Time Latitude Longitude Altitude Speed Heading
2026-05-05 00:21 56.45939 -5.40062 41 ft 0 kts
2026-05-05 00:22 56.45971 -5.40056 39 ft 30 kts
2026-05-05 00:22 56.46584 -5.39945 71 ft 140 kts
2026-05-05 00:22 56.47678 -5.39722 823 ft 182 kts
2026-05-05 00:23 56.49077 -5.39415 1718 ft 222 kts
2026-05-05 00:23 56.50718 -5.39049 2575 ft 251 kts
2026-05-05 00:23 56.52507 -5.38627 3431 ft 262 kts
2026-05-05 00:23 56.54292 -5.38215 4256 ft 255 kts
2026-05-05 00:24 56.56036 -5.37783 5072 ft 252 kts
2026-05-05 00:24 56.57771 -5.37348 5869 ft 251 kts
2026-05-05 00:24 56.59507 -5.36903 6655 ft 252 kts
2026-05-05 00:24 56.61238 -5.36179 7352 ft 271 kts 23°
2026-05-05 00:25 56.62618 -5.33631 8046 ft 308 kts 57°
2026-05-05 00:25 56.63484 -5.29901 8803 ft 333 kts 68°
2026-05-05 00:25 56.64213 -5.25783 9586 ft 351 kts 71°
2026-05-05 00:25 56.64927 -5.21448 10351 ft 365 kts 70°
2026-05-05 00:26 56.65825 -5.17055 11091 ft 377 kts 66°
2026-05-05 00:26 56.66756 -5.12601 11841 ft 368 kts 67°
2026-05-05 00:26 56.67567 -5.08412 12601 ft 334 kts 69°
2026-05-05 00:26 56.68306 -5.04582 13375 ft 308 kts 68°
2026-05-05 00:27 56.68987 -5.01102 14107 ft 285 kts 67°
2026-05-05 00:27 56.69631 -4.97829 14800 ft 264 kts 67°
2026-05-05 00:27 56.70225 -4.94812 15501 ft 243 kts 66°
2026-05-05 00:27 56.70765 -4.92019 16215 ft 228 kts 66°
2026-05-05 00:28 56.71306 -4.89297 16877 ft 232 kts 66°
2026-05-05 00:28 56.71880 -4.86371 17038 ft 262 kts 67°
2026-05-05 00:28 56.72527 -4.83059 17050 ft 292 kts 68°
2026-05-05 00:28 56.73232 -4.79402 17056 ft 319 kts 68°
2026-05-05 00:29 56.73986 -4.75507 17050 ft 342 kts 68°
2026-05-05 00:29 56.74794 -4.71308 17057 ft 360 kts 68°
2026-05-05 00:29 56.75643 -4.66917 17069 ft 375 kts 68°
2026-05-05 00:29 56.76524 -4.62357 17057 ft 387 kts 68°
2026-05-05 00:30 56.77420 -4.57653 17058 ft 397 kts 69°
2026-05-05 00:30 56.78344 -4.52859 17062 ft 404 kts 68°
2026-05-05 00:30 56.79270 -4.47971 17055 ft 411 kts 69°
2026-05-05 00:30 56.80215 -4.43020 17049 ft 415 kts 69°
2026-05-05 00:31 56.81165 -4.38024 17050 ft 419 kts 69°
2026-05-05 00:31 56.82125 -4.32983 17049 ft 421 kts 69°
2026-05-05 00:31 56.83051 -4.28043 17048 ft 414 kts 69°
2026-05-05 00:31 56.83983 -4.23115 17050 ft 408 kts 69°
2026-05-05 00:32 56.84898 -4.18241 17040 ft 404 kts 69°
2026-05-05 00:32 56.85805 -4.13413 17040 ft 400 kts 69°
2026-05-05 00:32 56.86704 -4.08620 17043 ft 398 kts 69°
2026-05-05 00:32 56.87591 -4.03844 17037 ft 396 kts 69°
2026-05-05 00:33 56.88481 -3.99088 17032 ft 395 kts 69°
2026-05-05 00:33 56.89358 -3.94338 17031 ft 394 kts 69°
2026-05-05 00:33 56.90241 -3.89603 17032 ft 393 kts 69°
2026-05-05 00:33 56.91109 -3.84875 17029 ft 392 kts 69°
2026-05-05 00:34 56.91940 -3.80196 17027 ft 392 kts 72°
2026-05-05 00:34 56.92548 -3.75325 17025 ft 392 kts 76°
2026-05-05 00:34 56.93206 -3.70482 17022 ft 390 kts 71°
2026-05-05 00:34 56.94113 -3.65815 17023 ft 389 kts 66°
2026-05-05 00:35 56.95085 -3.61193 17028 ft 389 kts 68°
2026-05-05 00:35 56.95973 -3.56503 17025 ft 389 kts 68°
2026-05-05 00:35 56.96883 -3.51832 17026 ft 389 kts 68°
2026-05-05 00:35 56.97776 -3.47153 17027 ft 389 kts 68°
2026-05-05 00:36 56.98660 -3.42526 17029 ft 389 kts 67°
2026-05-05 00:36 56.99909 -3.38164 17017 ft 385 kts 53°
2026-05-05 00:36 57.01402 -3.34076 16916 ft 387 kts 53°
2026-05-05 00:36 57.02762 -3.30028 16652 ft 360 kts 58°
2026-05-05 00:37 57.03776 -3.25970 16184 ft 344 kts 64°
2026-05-05 00:37 57.04688 -3.21942 15419 ft 340 kts 64°
2026-05-05 00:37 57.05677 -3.18029 14671 ft 336 kts 61°
2026-05-05 00:37 57.06699 -3.14193 13945 ft 332 kts 61°
2026-05-05 00:38 57.07668 -3.10421 13181 ft 330 kts 62°
2026-05-05 00:38 57.08637 -3.06613 12388 ft 327 kts 62°
2026-05-05 00:38 57.09589 -3.02829 11615 ft 325 kts 62°
2026-05-05 00:38 57.10548 -2.99089 10865 ft 322 kts 62°
2026-05-05 00:39 57.11486 -2.95376 10146 ft 319 kts 63°
2026-05-05 00:39 57.12425 -2.91697 9373 ft 314 kts 62°
2026-05-05 00:39 57.13319 -2.88134 8574 ft 299 kts 63°
2026-05-05 00:39 57.14180 -2.84729 7790 ft 288 kts 63°
2026-05-05 00:40 57.15010 -2.81444 7019 ft 279 kts 64°
2026-05-05 00:40 57.15798 -2.78315 6530 ft 263 kts 63°
2026-05-05 00:40 57.16523 -2.75431 6499 ft 234 kts 64°
2026-05-05 00:40 57.17178 -2.72818 6233 ft 222 kts 63°
2026-05-05 00:41 57.17822 -2.70250 5845 ft 217 kts 63°
2026-05-05 00:41 57.18443 -2.67788 5628 ft 206 kts 62°
2026-05-05 00:41 57.19029 -2.65431 5445 ft 198 kts 62°
2026-05-05 00:41 57.19600 -2.63156 5242 ft 193 kts 62°
2026-05-05 00:42 57.20154 -2.60936 5049 ft 188 kts 61°
2026-05-05 00:42 57.20687 -2.58795 4851 ft 185 kts 61°
2026-05-05 00:42 57.21219 -2.56678 4669 ft 176 kts 59°
2026-05-05 00:42 57.21704 -2.54692 4491 ft 164 kts 60°
2026-05-05 00:43 57.22174 -2.52838 4299 ft 156 kts 59°
2026-05-05 00:43 57.22617 -2.51040 4108 ft 152 kts 58°
2026-05-05 00:43 57.23055 -2.49291 3916 ft 149 kts 59°